Time;durP1;ratioP1;P1;durP2;ratioP2;P2;SDS_P1;SDS_P2;PMS_P1;PMS_P2;Temp;Humidity;BMP_temperature;BMP_pressure;BME280_temperature;BME280_humidity;BME280_pressure;Samples;Min_cycle;Max_cycle;Signal;HPM_P1;HPM_P2
2024/03/15 00:00:58;;;;;;;59.67;6.00;;;;;;;;;;5010708;28;20453;-70
2024/03/15 00:03:25;;;;;;;60.10;6.83;;;;;;;;;;5003088;28;20457;-70
2024/03/15 00:05:53;;;;;;;59.37;6.20;;;;;;;;;;5017975;28;20452;-70
2024/03/15 00:08:20;;;;;;;59.27;6.13;;;;;;;;;;5019248;28;20480;-70
2024/03/15 00:10:47;;;;;;;59.77;6.83;;;;;;;;;;5010948;28;20450;-71
2024/03/15 00:13:15;;;;;;;59.80;5.87;;;;;;;;;;5018684;28;20496;-70
2024/03/15 00:15:42;;;;;;;59.10;6.17;;;;;;;;;;5024239;28;20489;-70
2024/03/15 00:18:09;;;;;;;60.23;6.40;;;;;;;;;;5020993;28;20464;-70
2024/03/15 00:20:36;;;;;;;58.57;6.00;;;;;;;;;;5010404;28;20450;-70
2024/03/15 00:23:06;;;;;;;59.30;6.53;;;;;;;;;;5010605;28;20446;-70
2024/03/15 00:25:33;;;;;;;59.90;6.77;;;;;;;;;;5010635;28;20504;-70
2024/03/15 00:28:02;;;;;;;60.50;7.17;;;;;;;;;;5010159;28;20469;-70
2024/03/15 00:30:29;;;;;;;59.67;6.40;;;;;;;;;;5030073;28;20873;-70
2024/03/15 00:32:57;;;;;;;60.50;6.30;;;;;;;;;;5022718;28;20448;-70
2024/03/15 00:35:24;;;;;;;59.87;6.93;;;;;;;;;;5023061;28;20445;-70
2024/03/15 00:37:52;;;;;;;59.87;6.70;;;;;;;;;;5033719;28;20477;-70
2024/03/15 00:40:19;;;;;;;66.13;7.03;;;;;;;;;;5025982;28;20456;-70
2024/03/15 00:42:46;;;;;;;59.93;7.00;;;;;;;;;;5034241;28;20444;-70
2024/03/15 00:45:13;;;;;;;59.27;5.97;;;;;;;;;;5032602;28;20812;-70
2024/03/15 00:47:40;;;;;;;59.07;6.20;;;;;;;;;;5013747;28;20469;-70
2024/03/15 00:50:08;;;;;;;57.97;5.70;;;;;;;;;;5014287;28;20448;-70
2024/03/15 00:52:37;;;;;;;59.53;6.60;;;;;;;;;;5026643;28;20578;-70
2024/03/15 00:55:04;;;;;;;59.97;5.83;;;;;;;;;;5016939;28;20461;-70
2024/03/15 00:57:32;;;;;;;59.27;6.40;;;;;;;;;;5017803;28;20539;-70
2024/03/15 00:59:59;;;;;;;59.37;6.13;;;;;;;;;;5033519;28;20806;-70
2024/03/15 01:02:26;;;;;;;60.07;6.90;;;;;;;;;;5021918;28;20456;-70
2024/03/15 01:04:54;;;;;;;59.10;5.97;;;;;;;;;;5013989;28;20480;-70
2024/03/15 01:07:21;;;;;;;59.27;6.50;;;;;;;;;;5030087;28;20472;-70
2024/03/15 01:09:49;;;;;;;62.10;9.00;;;;;;;;;;5018122;28;20448;-70
2024/03/15 01:12:16;;;;;;;62.83;6.60;;;;;;;;;;5013280;28;20448;-69
2024/03/15 01:14:43;;;;;;;61.10;6.97;;;;;;;;;;5013134;28;20452;-69
2024/03/15 01:17:10;;;;;;;59.47;6.33;;;;;;;;;;5030318;28;20839;-70
2024/03/15 01:19:37;;;;;;;61.60;7.33;;;;;;;;;;5020327;28;20447;-70
2024/03/15 01:22:04;;;;;;;59.70;6.00;;;;;;;;;;5020548;28;20475;-70
2024/03/15 01:24:31;;;;;;;59.57;6.10;;;;;;;;;;5008628;28;20450;-70
2024/03/15 01:26:59;;;;;;;62.10;6.03;;;;;;;;;;5020541;28;20472;-70
2024/03/15 01:29:27;;;;;;;60.10;6.67;;;;;;;;;;5016637;28;20938;-70
2024/03/15 01:31:56;;;;;;;59.97;6.13;;;;;;;;;;5017600;28;20460;-70
2024/03/15 01:34:23;;;;;;;60.17;7.50;;;;;;;;;;5012974;28;20461;-70
2024/03/15 01:36:50;;;;;;;59.90;6.80;;;;;;;;;;5019096;28;20511;-70
2024/03/15 01:39:18;;;;;;;62.50;6.33;;;;;;;;;;5032784;28;20461;-70
2024/03/15 01:41:45;;;;;;;60.77;7.13;;;;;;;;;;5027406;28;20464;-70
2024/03/15 01:44:13;;;;;;;61.73;6.60;;;;;;;;;;5014164;28;20817;-70
2024/03/15 01:46:40;;;;;;;58.43;6.13;;;;;;;;;;5032253;28;20468;-70
2024/03/15 01:49:08;;;;;;;59.70;5.63;;;;;;;;;;5016041;28;20439;-70
2024/03/15 01:51:36;;;;;;;59.50;6.37;;;;;;;;;;5012861;28;20456;-70
2024/03/15 01:54:03;;;;;;;60.00;6.40;;;;;;;;;;5021395;28;20450;-70
2024/03/15 01:56:31;;;;;;;61.80;6.67;;;;;;;;;;5012267;28;20481;-70
2024/03/15 01:58:58;;;;;;;60.97;7.13;;;;;;;;;;5012877;28;20447;-70
2024/03/15 02:01:26;;;;;;;60.40;6.40;;;;;;;;;;5023375;28;20451;-70
2024/03/15 02:03:53;;;;;;;58.67;5.87;;;;;;;;;;5032353;28;20449;-70
2024/03/15 02:06:21;;;;;;;59.40;6.97;;;;;;;;;;5029919;28;20447;-70
2024/03/15 02:08:49;;;;;;;59.03;5.90;;;;;;;;;;5026483;28;20933;-70
2024/03/15 02:11:16;;;;;;;58.70;5.73;;;;;;;;;;5032178;28;20486;-70
2024/03/15 02:13:44;;;;;;;62.93;6.93;;;;;;;;;;5027318;28;20444;-70
2024/03/15 02:16:11;;;;;;;60.73;6.30;;;;;;;;;;5012408;28;20499;-70
2024/03/15 02:18:38;;;;;;;59.50;5.97;;;;;;;;;;5012542;28;20469;-70
2024/03/15 02:21:05;;;;;;;63.07;6.70;;;;;;;;;;5012144;28;20457;-70
2024/03/15 02:23:33;;;;;;;59.10;5.83;;;;;;;;;;5012352;28;20459;-70
2024/03/15 02:26:00;;;;;;;59.43;5.73;;;;;;;;;;5012301;28;20823;-70
2024/03/15 02:28:27;;;;;;;59.83;6.00;;;;;;;;;;5012145;28;20479;-70
2024/03/15 02:30:54;;;;;;;60.50;6.57;;;;;;;;;;5012101;28;20448;-70
2024/03/15 02:33:23;;;;;;;61.70;6.10;;;;;;;;;;5022117;28;20543;-70
2024/03/15 02:35:50;;;;;;;58.23;5.57;;;;;;;;;;5031579;28;20539;-70
2024/03/15 02:38:17;;;;;;;60.20;5.40;;;;;;;;;;5031460;28;20482;-70
2024/03/15 02:40:44;;;;;;;59.20;5.70;;;;;;;;;;5031651;28;20452;-70
2024/03/15 02:43:12;;;;;;;59.87;6.20;;;;;;;;;;5031201;28;20448;-69
2024/03/15 02:45:39;;;;;;;62.07;6.63;;;;;;;;;;5012049;28;20463;-70
2024/03/15 02:48:06;;;;;;;61.30;6.07;;;;;;;;;;5012112;28;20466;-70
2024/03/15 02:50:33;;;;;;;59.47;6.03;;;;;;;;;;5003197;28;20451;-70
2024/03/15 02:53:01;;;;;;;59.57;5.70;;;;;;;;;;5011906;28;20460;-70
2024/03/15 02:55:28;;;;;;;59.00;5.20;;;;;;;;;;5014267;28;20448;-70
2024/03/15 02:57:55;;;;;;;59.30;5.37;;;;;;;;;;5030328;28;20495;-70
2024/03/15 03:00:22;;;;;;;60.20;6.03;;;;;;;;;;5022829;28;20450;-70
2024/03/15 03:02:50;;;;;;;62.50;6.73;;;;;;;;;;5017549;28;20972;-70
2024/03/15 03:05:17;;;;;;;60.90;6.77;;;;;;;;;;5011585;28;20863;-70
2024/03/15 03:07:44;;;;;;;58.87;5.97;;;;;;;;;;5016241;28;21002;-70
2024/03/15 03:10:11;;;;;;;59.53;6.00;;;;;;;;;;5011670;28;20457;-70
2024/03/15 03:12:38;;;;;;;60.27;6.47;;;;;;;;;;5011466;28;20485;-70
2024/03/15 03:15:06;;;;;;;62.83;6.43;;;;;;;;;;5011625;28;20544;-69
2024/03/15 03:17:33;;;;;;;61.07;6.10;;;;;;;;;;5011147;28;20491;-70
2024/03/15 03:20:00;;;;;;;60.43;5.70;;;;;;;;;;5011084;28;20463;-70
2024/03/15 03:22:27;;;;;;;59.07;5.90;;;;;;;;;;5019365;28;20449;-69
2024/03/15 03:24:55;;;;;;;59.97;6.20;;;;;;;;;;5025534;28;20459;-69
2024/03/15 03:27:22;;;;;;;58.67;5.63;;;;;;;;;;5020757;28;20491;-70
2024/03/15 03:29:49;;;;;;;58.50;5.60;;;;;;;;;;5011289;28;20820;-70
2024/03/15 03:32:16;;;;;;;58.47;5.40;;;;;;;;;;5011115;28;20823;-69
2024/03/15 03:34:43;;;;;;;60.50;6.60;;;;;;;;;;5011144;28;20958;-70
2024/03/15 03:37:11;;;;;;;58.40;5.50;;;;;;;;;;5026849;28;20567;-69
2024/03/15 03:39:39;;;;;;;60.40;5.70;;;;;;;;;;5030666;28;20452;-70
2024/03/15 03:42:07;;;;;;;58.87;5.63;;;;;;;;;;5014835;28;20510;-70
2024/03/15 03:44:33;;;;;;;63.03;5.30;;;;;;;;;;5019044;28;20815;-70
2024/03/15 03:47:03;;;;;;;59.87;5.77;;;;;;;;;;5010656;28;20507;-70
2024/03/15 03:49:30;;;;;;;58.63;5.80;;;;;;;;;;5010775;28;21030;-70
2024/03/15 03:51:58;;;;;;;59.40;5.93;;;;;;;;;;5025422;28;20895;-70
2024/03/15 03:54:25;;;;;;;59.20;5.33;;;;;;;;;;5012012;28;20456;-70
2024/03/15 03:56:52;;;;;;;61.27;6.57;;;;;;;;;;5010608;28;20543;-70
2024/03/15 03:59:19;;;;;;;59.27;6.40;;;;;;;;;;5018811;28;20439;-70
2024/03/15 04:01:47;;;;;;;60.07;6.70;;;;;;;;;;5023918;28;20452;-69
2024/03/15 04:04:14;;;;;;;59.90;7.57;;;;;;;;;;5021840;28;20481;-69
2024/03/15 04:06:41;;;;;;;60.67;6.40;;;;;;;;;;5010410;28;20471;-70
2024/03/15 04:09:08;;;;;;;59.87;7.13;;;;;;;;;;5020234;28;20447;-69
2024/03/15 04:11:38;;;;;;;59.67;6.20;;;;;;;;;;5033792;28;20444;-70
2024/03/15 04:14:05;;;;;;;60.00;6.37;;;;;;;;;;5017393;28;20487;-69
2024/03/15 04:16:32;;;;;;;59.27;5.90;;;;;;;;;;5016873;28;20455;-70
2024/03/15 04:19:00;;;;;;;60.00;6.43;;;;;;;;;;5016921;28;20509;-70
2024/03/15 04:21:28;;;;;;;61.10;5.97;;;;;;;;;;5035261;28;20451;-69
2024/03/15 04:23:55;;;;;;;60.70;6.10;;;;;;;;;;5036983;28;20448;-70
2024/03/15 04:26:24;;;;;;;59.77;6.03;;;;;;;;;;5036764;28;20478;-70
2024/03/15 04:28:51;;;;;;;58.70;6.07;;;;;;;;;;5031547;28;20481;-70
2024/03/15 04:31:20;;;;;;;60.30;6.30;;;;;;;;;;5025254;28;20458;-69
2024/03/15 04:33:49;;;;;;;58.70;6.03;;;;;;;;;;5016802;28;20871;-70
2024/03/15 04:36:16;;;;;;;61.97;6.63;;;;;;;;;;5024757;28;20451;-70
2024/03/15 04:38:44;;;;;;;60.47;6.20;;;;;;;;;;5020726;28;20496;-70
2024/03/15 04:41:11;;;;;;;60.17;6.47;;;;;;;;;;5020687;28;20454;-70
2024/03/15 04:43:38;;;;;;;62.27;6.37;;;;;;;;;;5036592;28;20459;-69
2024/03/15 04:46:07;;;;;;;58.67;5.90;;;;;;;;;;5029428;28;20544;-70
2024/03/15 04:48:36;;;;;;;59.77;6.93;;;;;;;;;;5016708;28;20980;-70
2024/03/15 04:51:04;;;;;;;59.37;5.63;;;;;;;;;;5023414;28;20457;-70
2024/03/15 04:53:31;;;;;;;60.60;6.03;;;;;;;;;;5026114;28;20453;-70
2024/03/15 04:55:59;;;;;;;60.40;5.90;;;;;;;;;;5016786;28;20448;-70
2024/03/15 04:58:28;;;;;;;59.30;5.93;;;;;;;;;;5016319;28;21000;-70
2024/03/15 05:00:55;;;;;;;62.17;5.30;;;;;;;;;;5030493;28;20455;-70
2024/03/15 05:03:22;;;;;;;58.20;5.80;;;;;;;;;;5036430;28;20956;-70
2024/03/15 05:05:50;;;;;;;59.50;5.63;;;;;;;;;;5036369;28;20447;-69
2024/03/15 05:08:18;;;;;;;59.10;5.63;;;;;;;;;;5027621;28;20464;-69
2024/03/15 05:10:45;;;;;;;58.17;5.13;;;;;;;;;;5027931;28;20453;-69
2024/03/15 05:13:12;;;;;;;58.70;5.60;;;;;;;;;;5028604;28;20452;-70
2024/03/15 05:15:39;;;;;;;65.63;5.30;;;;;;;;;;5016487;28;20448;-69
2024/03/15 05:18:07;;;;;;;58.90;5.67;;;;;;;;;;5016417;28;20594;-69
2024/03/15 05:20:34;;;;;;;58.23;5.40;;;;;;;;;;5023296;28;20444;-70
2024/03/15 05:23:01;;;;;;;59.20;5.47;;;;;;;;;;5013720;28;20460;-70
2024/03/15 05:25:28;;;;;;;59.87;5.73;;;;;;;;;;5013540;28;20815;-70
2024/03/15 05:27:56;;;;;;;58.57;5.40;;;;;;;;;;5021305;28;20858;-70
2024/03/15 05:30:23;;;;;;;60.43;6.43;;;;;;;;;;5021434;28;20453;-70
2024/03/15 05:32:50;;;;;;;59.00;5.83;;;;;;;;;;5013351;28;21009;-70
2024/03/15 05:35:20;;;;;;;59.20;5.60;;;;;;;;;;5021538;28;20953;-70
2024/03/15 05:37:48;;;;;;;58.30;5.17;;;;;;;;;;5032573;28;20494;-70
2024/03/15 05:40:15;;;;;;;58.40;5.47;;;;;;;;;;5016969;28;20956;-70
2024/03/15 05:42:42;;;;;;;60.50;6.00;;;;;;;;;;5005488;28;20463;-70
2024/03/15 05:45:09;;;;;;;59.40;5.13;;;;;;;;;;5021637;28;20517;-70
2024/03/15 05:47:37;;;;;;;57.90;5.63;;;;;;;;;;5023814;28;20987;-70
2024/03/15 05:50:04;;;;;;;59.27;5.13;;;;;;;;;;5018122;28;20453;-69
2024/03/15 05:52:33;;;;;;;63.23;6.30;;;;;;;;;;5012905;28;20452;-70
2024/03/15 05:55:00;;;;;;;59.47;5.83;;;;;;;;;;5013345;28;20453;-70
2024/03/15 05:57:28;;;;;;;58.17;4.90;;;;;;;;;;5012626;28;20499;-69
2024/03/15 05:59:55;;;;;;;59.77;5.23;;;;;;;;;;5012948;28;20546;-70
2024/03/15 06:02:22;;;;;;;60.00;6.17;;;;;;;;;;5012808;28;20546;-70
2024/03/15 06:04:50;;;;;;;62.13;5.70;;;;;;;;;;5017135;28;20459;-69
2024/03/15 06:07:17;;;;;;;60.10;5.87;;;;;;;;;;5032210;28;20473;-70
2024/03/15 06:09:44;;;;;;;58.30;4.97;;;;;;;;;;5024256;28;20456;-70
2024/03/15 06:12:11;;;;;;;62.13;5.97;;;;;;;;;;5032629;28;20526;-70
2024/03/15 06:14:39;;;;;;;58.63;5.97;;;;;;;;;;5024794;28;20446;-70
2024/03/15 06:17:06;;;;;;;61.00;5.20;;;;;;;;;;5031887;28;20479;-70
2024/03/15 06:19:34;;;;;;;64.30;6.03;;;;;;;;;;5022225;28;20478;-70
2024/03/15 06:22:01;;;;;;;59.50;5.83;;;;;;;;;;5018374;28;20453;-70
2024/03/15 06:24:28;;;;;;;59.47;5.50;;;;;;;;;;5030642;28;20451;-70
2024/03/15 06:26:56;;;;;;;60.40;6.20;;;;;;;;;;5020631;28;20472;-70
2024/03/15 06:29:31;;;;;;;59.93;6.47;;;;;;;;;;5012529;28;20544;-70
2024/03/15 06:31:59;;;;;;;61.30;6.53;;;;;;;;;;5017231;28;20491;-70
2024/03/15 06:34:31;;;;;;;58.57;5.50;;;;;;;;;;5031456;28;20444;-70
2024/03/15 06:36:59;;;;;;;61.03;6.30;;;;;;;;;;5031824;28;20832;-70
2024/03/15 06:39:50;;;;;;;59.10;5.53;;;;;;;;;;5031934;28;20443;-71
2024/03/15 06:42:23;;;;;;;64.83;6.03;;;;;;;;;;5017068;28;20448;-70
2024/03/15 06:45:02;;;;;;;59.77;5.73;;;;;;;;;;5024096;28;20502;-70
2024/03/15 06:47:31;;;;;;;60.47;6.40;;;;;;;;;;5014100;28;20832;-71
2024/03/15 06:50:20;;;;;;;59.67;6.33;;;;;;;;;;5025386;28;20936;-71
2024/03/15 06:52:46;;;;;;;59.67;6.33;;;;;;;;;;5028670;28;20457;-71
2024/03/15 06:55:16;;;;;;;60.57;6.80;;;;;;;;;;5019371;28;20452;-71
2024/03/15 06:57:45;;;;;;;60.33;6.80;;;;;;;;;;5031524;28;20940;-71
2024/03/15 07:00:14;;;;;;;61.63;8.03;;;;;;;;;;5022887;28;20453;-70
2024/03/15 07:02:42;;;;;;;62.07;7.67;;;;;;;;;;5032539;28;20465;-70
2024/03/15 07:05:10;;;;;;;60.97;6.73;;;;;;;;;;5033948;28;20452;-70
2024/03/15 07:07:38;;;;;;;61.90;8.10;;;;;;;;;;5033550;28;20482;-70
2024/03/15 07:10:05;;;;;;;60.53;7.40;;;;;;;;;;5013543;28;20461;-70
2024/03/15 07:12:32;;;;;;;62.80;6.50;;;;;;;;;;5012228;28;20832;-70
2024/03/15 07:15:00;;;;;;;63.67;7.57;;;;;;;;;;5031140;28;20959;-70
2024/03/15 07:17:27;;;;;;;62.30;7.03;;;;;;;;;;5013621;28;20563;-70
2024/03/15 07:19:55;;;;;;;59.67;6.00;;;;;;;;;;5010954;28;20455;-70
2024/03/15 07:22:24;;;;;;;61.03;6.73;;;;;;;;;;5011030;28;20454;-70
2024/03/15 07:24:51;;;;;;;60.60;6.47;;;;;;;;;;5011107;28;20453;-70
2024/03/15 07:27:19;;;;;;;63.80;6.30;;;;;;;;;;5011188;28;20850;-70
2024/03/15 07:29:47;;;;;;;60.67;7.17;;;;;;;;;;5007209;28;20489;-70
2024/03/15 07:32:14;;;;;;;59.40;5.70;;;;;;;;;;5009243;28;20460;-70
2024/03/15 07:34:42;;;;;;;60.10;5.20;;;;;;;;;;5021832;28;20454;-70
2024/03/15 07:37:09;;;;;;;60.10;6.40;;;;;;;;;;5021907;28;20513;-70
2024/03/15 07:39:36;;;;;;;64.00;5.30;;;;;;;;;;5013060;28;20485;-69
2024/03/15 07:42:03;;;;;;;61.40;5.90;;;;;;;;;;5020990;28;20460;-69
2024/03/15 07:44:30;;;;;;;59.70;5.20;;;;;;;;;;5010795;28;20450;-68
2024/03/15 07:46:57;;;;;;;58.73;4.50;;;;;;;;;;5010848;28;20492;-68
2024/03/15 07:49:25;;;;;;;60.67;5.13;;;;;;;;;;5018974;28;20519;-70
2024/03/15 07:51:53;;;;;;;58.47;4.40;;;;;;;;;;5010703;28;20967;-70
2024/03/15 07:54:21;;;;;;;57.83;3.90;;;;;;;;;;5010990;28;20482;-71
2024/03/15 07:56:48;;;;;;;57.67;3.37;;;;;;;;;;5005970;28;20472;-70
2024/03/15 07:59:15;;;;;;;56.87;3.43;;;;;;;;;;5015803;28;20497;-70
2024/03/15 08:01:42;;;;;;;57.37;3.50;;;;;;;;;;5010866;28;20442;-70
2024/03/15 08:04:10;;;;;;;60.40;4.00;;;;;;;;;;5017133;28;20934;-70
2024/03/15 08:06:37;;;;;;;58.57;3.73;;;;;;;;;;5030025;28;20545;-70
2024/03/15 08:09:05;;;;;;;59.83;3.63;;;;;;;;;;5030559;28;20818;-70
2024/03/15 08:11:33;;;;;;;58.27;3.50;;;;;;;;;;5030506;28;20822;-70
2024/03/15 08:14:02;;;;;;;57.03;3.00;;;;;;;;;;5025467;28;20450;-70
2024/03/15 08:16:34;;;;;;;57.57;3.23;;;;;;;;;;5010341;28;20470;-70
2024/03/15 08:19:02;;;;;;;59.07;3.50;;;;;;;;;;5010551;28;20490;-70
2024/03/15 08:21:29;;;;;;;57.33;3.53;;;;;;;;;;5019593;28;20445;-70
2024/03/15 08:23:57;;;;;;;56.80;3.33;;;;;;;;;;5017735;28;20951;-71
2024/03/15 08:26:24;;;;;;;57.80;3.40;;;;;;;;;;5007719;28;20454;-70
2024/03/15 08:28:51;;;;;;;58.30;4.27;;;;;;;;;;5010806;28;20443;-70
2024/03/15 08:31:19;;;;;;;56.77;3.57;;;;;;;;;;5010375;28;20537;-70
2024/03/15 08:33:47;;;;;;;57.50;3.47;;;;;;;;;;5010037;28;20443;-70
2024/03/15 08:36:14;;;;;;;59.77;3.63;;;;;;;;;;5010566;28;20827;-70
2024/03/15 08:38:42;;;;;;;56.90;3.20;;;;;;;;;;5018651;28;20515;-70
2024/03/15 08:41:10;;;;;;;58.70;3.90;;;;;;;;;;5024600;28;20445;-70
2024/03/15 08:43:37;;;;;;;59.53;3.80;;;;;;;;;;5030379;28;20503;-70
2024/03/15 08:46:05;;;;;;;57.17;3.17;;;;;;;;;;5030057;28;20449;-70
2024/03/15 08:48:32;;;;;;;56.20;3.00;;;;;;;;;;5029088;28;20477;-70
2024/03/15 08:51:03;;;;;;;58.93;4.00;;;;;;;;;;5018691;28;20446;-70
2024/03/15 08:53:30;;;;;;;57.80;3.50;;;;;;;;;;5010501;28;20454;-70
2024/03/15 08:55:58;;;;;;;57.83;3.50;;;;;;;;;;5011163;28;20453;-70
2024/03/15 08:58:26;;;;;;;57.07;3.60;;;;;;;;;;5013618;28;20490;-70
2024/03/15 09:00:53;;;;;;;59.00;3.90;;;;;;;;;;5033837;28;20449;-70
2024/03/15 09:03:21;;;;;;;57.67;3.73;;;;;;;;;;5018051;28;20450;-70
2024/03/15 09:05:48;;;;;;;58.27;3.27;;;;;;;;;;5016529;28;20516;-70
2024/03/15 09:08:15;;;;;;;59.20;3.40;;;;;;;;;;5033289;28;20469;-70
2024/03/15 09:10:42;;;;;;;58.07;3.10;;;;;;;;;;5033477;28;20475;-70
2024/03/15 09:13:10;;;;;;;56.70;3.33;;;;;;;;;;5033347;28;20445;-70
2024/03/15 09:15:38;;;;;;;58.63;3.37;;;;;;;;;;5017330;28;20553;-70
2024/03/15 09:18:08;;;;;;;56.27;2.77;;;;;;;;;;5033298;28;20469;-70
2024/03/15 09:20:37;;;;;;;56.80;3.30;;;;;;;;;;5033174;28;20523;-70
2024/03/15 09:23:04;;;;;;;56.60;3.30;;;;;;;;;;5028395;28;20820;-70
2024/03/15 09:25:32;;;;;;;57.90;3.27;;;;;;;;;;5022323;28;20931;-70
2024/03/15 09:28:00;;;;;;;58.27;3.80;;;;;;;;;;5020519;28;20525;-70
2024/03/15 09:30:35;;;;;;;58.50;3.90;;;;;;;;;;5013559;28;20486;-71
2024/03/15 09:33:03;;;;;;;61.67;3.73;;;;;;;;;;5013666;28;20973;-69
2024/03/15 09:35:32;;;;;;;57.67;4.03;;;;;;;;;;5013333;28;20545;-69
2024/03/15 09:37:59;;;;;;;57.40;3.30;;;;;;;;;;5017228;28;20477;-69
2024/03/15 09:40:28;;;;;;;58.90;3.70;;;;;;;;;;5033336;28;20786;-69
2024/03/15 09:42:55;;;;;;;61.07;3.33;;;;;;;;;;5032930;28;20543;-69
2024/03/15 09:45:21;;;;;;;57.80;3.10;;;;;;;;;;5033045;28;20480;-69
2024/03/15 09:47:49;;;;;;;57.47;2.97;;;;;;;;;;5032594;28;20480;-69
2024/03/15 09:50:17;;;;;;;57.37;3.37;;;;;;;;;;5017966;28;20450;-69
2024/03/15 09:52:44;;;;;;;57.30;2.97;;;;;;;;;;5012848;28;20446;-69
2024/03/15 09:55:13;;;;;;;57.13;3.00;;;;;;;;;;5013373;28;20546;-69
2024/03/15 09:57:42;;;;;;;56.90;3.13;;;;;;;;;;5029192;28;20814;-69
2024/03/15 10:00:11;;;;;;;59.90;3.60;;;;;;;;;;5012900;28;20519;-69
2024/03/15 10:02:38;;;;;;;57.57;3.13;;;;;;;;;;5030333;28;20457;-69
2024/03/15 10:05:07;;;;;;;58.60;3.10;;;;;;;;;;5032664;28;20458;-70
2024/03/15 10:07:35;;;;;;;58.10;3.40;;;;;;;;;;5032179;28;20470;-70
2024/03/15 10:10:06;;;;;;;56.00;2.67;;;;;;;;;;5032627;28;20442;-70
2024/03/15 10:12:34;;;;;;;58.53;2.40;;;;;;;;;;5032576;28;20496;-70
2024/03/15 10:15:02;;;;;;;57.07;2.80;;;;;;;;;;5032305;28;20938;-70
2024/03/15 10:17:31;;;;;;;56.40;2.50;;;;;;;;;;5032131;28;20472;-70
2024/03/15 10:19:58;;;;;;;57.90;2.77;;;;;;;;;;5032192;28;20481;-70
2024/03/15 10:22:26;;;;;;;57.57;2.80;;;;;;;;;;5016544;28;20442;-70
2024/03/15 10:24:54;;;;;;;57.63;3.03;;;;;;;;;;5032239;28;20449;-70
2024/03/15 10:27:22;;;;;;;56.30;2.70;;;;;;;;;;5016877;28;20466;-70
2024/03/15 10:29:49;;;;;;;58.70;2.63;;;;;;;;;;5014770;28;20451;-70
2024/03/15 10:32:16;;;;;;;56.30;2.47;;;;;;;;;;5025990;28;20831;-70
2024/03/15 10:34:43;;;;;;;58.33;2.87;;;;;;;;;;5012248;28;20541;-70
2024/03/15 10:37:11;;;;;;;55.80;2.53;;;;;;;;;;5012021;28;20477;-70
2024/03/15 10:39:40;;;;;;;55.87;2.10;;;;;;;;;;5012103;28;20490;-70
2024/03/15 10:42:07;;;;;;;55.97;2.30;;;;;;;;;;5012233;28;20451;-70
2024/03/15 10:44:34;;;;;;;58.90;2.87;;;;;;;;;;5012502;28;20451;-70
2024/03/15 10:47:01;;;;;;;56.10;2.27;;;;;;;;;;5031448;28;20472;-70
2024/03/15 10:49:29;;;;;;;56.37;2.30;;;;;;;;;;5031969;28;20533;-70
2024/03/15 10:51:56;;;;;;;56.07;2.17;;;;;;;;;;5023607;28;20449;-70
2024/03/15 10:54:23;;;;;;;56.37;2.47;;;;;;;;;;5031626;28;20453;-70
2024/03/15 10:56:51;;;;;;;56.00;2.47;;;;;;;;;;5023295;28;20482;-70
2024/03/15 10:59:18;;;;;;;57.00;2.33;;;;;;;;;;5016924;28;20493;-70
2024/03/15 11:01:45;;;;;;;55.83;2.20;;;;;;;;;;5011699;28;20819;-70
2024/03/15 11:04:12;;;;;;;56.60;2.70;;;;;;;;;;5011892;28;20537;-70
2024/03/15 11:06:42;;;;;;;55.97;2.20;;;;;;;;;;5020759;28;20465;-70
2024/03/15 11:09:14;;;;;;;56.97;2.53;;;;;;;;;;5031436;28;20452;-70
2024/03/15 11:11:41;;;;;;;56.57;2.67;;;;;;;;;;5031119;28;20806;-70
2024/03/15 11:14:12;;;;;;;56.00;2.50;;;;;;;;;;5018140;28;20816;-70
2024/03/15 11:16:39;;;;;;;56.47;2.43;;;;;;;;;;5011188;28;20886;-70
2024/03/15 11:19:07;;;;;;;60.40;2.70;;;;;;;;;;5010665;28;21006;-70
2024/03/15 11:21:34;;;;;;;56.70;2.60;;;;;;;;;;5011183;28;20464;-70
2024/03/15 11:24:06;;;;;;;57.73;2.70;;;;;;;;;;5011423;28;20481;-70
2024/03/15 11:26:34;;;;;;;56.60;2.23;;;;;;;;;;5011093;28;20450;-70
2024/03/15 11:29:01;;;;;;;56.00;2.30;;;;;;;;;;5011374;28;20438;-70
2024/03/15 11:31:29;;;;;;;57.50;3.03;;;;;;;;;;5018655;28;20463;-70
2024/03/15 11:33:58;;;;;;;56.70;2.63;;;;;;;;;;5011476;28;20960;-70
2024/03/15 11:36:27;;;;;;;56.17;2.50;;;;;;;;;;5010924;28;20587;-70
2024/03/15 11:38:54;;;;;;;58.90;3.10;;;;;;;;;;5011083;28;20499;-70
2024/03/15 11:41:21;;;;;;;57.90;3.00;;;;;;;;;;5017570;28;20560;-70
2024/03/15 11:43:49;;;;;;;56.33;3.30;;;;;;;;;;5028949;28;20446;-70
2024/03/15 11:46:17;;;;;;;56.20;3.00;;;;;;;;;;5016858;28;20445;-70
2024/03/15 11:48:45;;;;;;;56.70;3.00;;;;;;;;;;5029004;28;20564;-70
2024/03/15 11:51:13;;;;;;;56.30;2.87;;;;;;;;;;5016085;28;20488;-70
2024/03/15 11:53:41;;;;;;;56.77;2.63;;;;;;;;;;5013222;28;20513;-70
2024/03/15 11:56:08;;;;;;;58.67;2.80;;;;;;;;;;5011034;28;20447;-70
2024/03/15 11:58:40;;;;;;;56.47;2.90;;;;;;;;;;5010591;28;20478;-69
2024/03/15 12:01:07;;;;;;;56.77;2.80;;;;;;;;;;5010778;28;20466;-69
2024/03/15 12:03:34;;;;;;;56.77;2.90;;;;;;;;;;5010945;28;20549;-69
2024/03/15 12:06:02;;;;;;;56.60;2.70;;;;;;;;;;5030608;28;20541;-70
2024/03/15 12:08:29;;;;;;;57.30;3.30;;;;;;;;;;5014895;28;20830;-69
2024/03/15 12:10:56;;;;;;;56.87;2.80;;;;;;;;;;5029892;28;20454;-69
2024/03/15 12:13:23;;;;;;;56.70;2.40;;;;;;;;;;5015424;28;20442;-69
2024/03/15 12:15:50;;;;;;;57.13;2.80;;;;;;;;;;5019149;28;20595;-69
2024/03/15 12:18:17;;;;;;;57.63;2.57;;;;;;;;;;5010481;28;20989;-69
2024/03/15 12:20:45;;;;;;;56.20;2.73;;;;;;;;;;5010501;28;20482;-69
2024/03/15 12:23:12;;;;;;;57.57;2.70;;;;;;;;;;5010668;28;20442;-69
2024/03/15 12:25:40;;;;;;;56.67;2.50;;;;;;;;;;5010220;28;20944;-69
2024/03/15 12:28:08;;;;;;;56.80;3.00;;;;;;;;;;5005498;28;20994;-69
2024/03/15 12:30:36;;;;;;;58.40;3.40;;;;;;;;;;5019993;28;20446;-69
2024/03/15 12:33:03;;;;;;;55.97;2.40;;;;;;;;;;5015087;28;20453;-69
2024/03/15 12:35:30;;;;;;;56.27;2.60;;;;;;;;;;5010884;28;20450;-69
2024/03/15 12:37:59;;;;;;;56.20;2.50;;;;;;;;;;5016847;28;20469;-69
2024/03/15 12:40:26;;;;;;;56.23;2.80;;;;;;;;;;5017618;28;20577;-70
2024/03/15 12:42:53;;;;;;;56.50;2.73;;;;;;;;;;5014124;28;20442;-69
2024/03/15 12:45:20;;;;;;;56.00;3.00;;;;;;;;;;5009983;28;20454;-69
2024/03/15 12:47:47;;;;;;;57.13;2.77;;;;;;;;;;5021556;28;20470;-69
2024/03/15 12:50:15;;;;;;;56.97;2.60;;;;;;;;;;5022067;28;20453;-69
2024/03/15 12:52:42;;;;;;;56.60;2.43;;;;;;;;;;5022897;28;20452;-70
2024/03/15 12:55:10;;;;;;;58.10;2.60;;;;;;;;;;5011250;28;20447;-70
2024/03/15 12:57:38;;;;;;;57.60;2.70;;;;;;;;;;5021779;28;20966;-70
2024/03/15 13:00:11;;;;;;;56.90;2.40;;;;;;;;;;5021546;28;20528;-70
2024/03/15 13:02:38;;;;;;;56.87;2.30;;;;;;;;;;5014243;28;20859;-70
2024/03/15 13:05:06;;;;;;;60.23;3.10;;;;;;;;;;5021997;28;20809;-70
2024/03/15 13:07:33;;;;;;;56.10;2.43;;;;;;;;;;5013819;28;20474;-70
2024/03/15 13:10:00;;;;;;;56.90;2.60;;;;;;;;;;5013726;28;20453;-70
2024/03/15 13:12:27;;;;;;;56.60;3.00;;;;;;;;;;5013731;28;20453;-70
2024/03/15 13:14:55;;;;;;;57.30;2.80;;;;;;;;;;5013620;28;20541;-69
2024/03/15 13:17:22;;;;;;;56.23;2.70;;;;;;;;;;5013774;28;20464;-69
2024/03/15 13:19:50;;;;;;;57.33;2.93;;;;;;;;;;5013524;28;20496;-69
2024/03/15 13:22:17;;;;;;;56.47;2.80;;;;;;;;;;5013717;28;20541;-69
2024/03/15 13:24:44;;;;;;;57.20;2.70;;;;;;;;;;5014029;28;20534;-69
2024/03/15 13:27:11;;;;;;;57.47;3.00;;;;;;;;;;5013370;28;20461;-69
2024/03/15 13:29:38;;;;;;;56.77;2.90;;;;;;;;;;5013673;28;20866;-69
2024/03/15 13:32:06;;;;;;;57.30;2.70;;;;;;;;;;5013596;28;20830;-69
2024/03/15 13:34:33;;;;;;;56.40;2.60;;;;;;;;;;5013657;28;20448;-69
2024/03/15 13:37:00;;;;;;;56.30;2.33;;;;;;;;;;5013052;28;20487;-69
2024/03/15 13:39:28;;;;;;;57.07;2.70;;;;;;;;;;5013554;28;20491;-70
2024/03/15 13:41:58;;;;;;;61.00;2.50;;;;;;;;;;5012309;28;20457;-70
2024/03/15 13:44:26;;;;;;;56.37;2.60;;;;;;;;;;5013390;28;20505;-70
2024/03/15 13:46:54;;;;;;;55.90;2.47;;;;;;;;;;5012969;28;20470;-70
2024/03/15 13:49:21;;;;;;;56.73;2.60;;;;;;;;;;5013403;28;20443;-70
2024/03/15 13:51:48;;;;;;;58.53;2.87;;;;;;;;;;5013034;28;20453;-70
2024/03/15 13:54:15;;;;;;;56.83;2.90;;;;;;;;;;5025882;28;20809;-70
2024/03/15 13:56:43;;;;;;;57.70;3.30;;;;;;;;;;5032528;28;20840;-70
2024/03/15 13:59:10;;;;;;;59.13;2.57;;;;;;;;;;5028897;28;20446;-70
2024/03/15 14:01:39;;;;;;;55.90;2.80;;;;;;;;;;5012972;28;20449;-70
2024/03/15 14:04:06;;;;;;;59.30;3.03;;;;;;;;;;5032549;28;20517;-70
2024/03/15 14:06:33;;;;;;;57.30;2.93;;;;;;;;;;5032070;28;20461;-70
2024/03/15 14:09:01;;;;;;;56.87;2.73;;;;;;;;;;5029391;28;20442;-70
2024/03/15 14:11:28;;;;;;;56.47;2.97;;;;;;;;;;5012700;28;20537;-70
2024/03/15 14:13:55;;;;;;;57.00;3.10;;;;;;;;;;5012349;28;20460;-70
2024/03/15 14:16:22;;;;;;;57.67;2.70;;;;;;;;;;5012275;28;20443;-70
2024/03/15 14:18:49;;;;;;;57.00;2.83;;;;;;;;;;5012301;28;20453;-70
2024/03/15 14:21:16;;;;;;;56.87;2.73;;;;;;;;;;5012367;28;20491;-70
2024/03/15 14:23:44;;;;;;;57.77;2.50;;;;;;;;;;5012500;28;20445;-70
2024/03/15 14:26:13;;;;;;;57.40;2.73;;;;;;;;;;5032182;28;20454;-69
2024/03/15 14:28:41;;;;;;;56.40;2.90;;;;;;;;;;5032196;28;20478;-69
2024/03/15 14:31:08;;;;;;;57.03;2.83;;;;;;;;;;5015852;28;20529;-69
2024/03/15 14:33:36;;;;;;;57.17;2.77;;;;;;;;;;5031989;28;20805;-69